Time;durP1;ratioP1;P1;durP2;ratioP2;P2;SDS_P1;SDS_P2;PMS_P1;PMS_P2;Temp;Humidity;BMP_temperature;BMP_pressure;BME280_temperature;BME280_humidity;BME280_pressure;Samples;Min_cycle;Max_cycle;Signal;HPM_P1;HPM_P2
2021/12/15 00:01:34;;;;;;;26.63;14.67;;;;;;;;;;5055157;28;20459;-62
2021/12/15 00:04:00;;;;;;;24.20;13.63;;;;;;;;;;5056179;28;20401;-62
2021/12/15 00:06:26;;;;;;;23.80;15.07;;;;;;;;;;5057389;28;20481;-62
2021/12/15 00:08:55;;;;;;;21.90;13.67;;;;;;;;;;5056674;28;20770;-60
2021/12/15 00:11:22;;;;;;;25.20;16.40;;;;;;;;;;5057527;28;20405;-61
2021/12/15 00:13:48;;;;;;;25.73;14.27;;;;;;;;;;5055673;28;20497;-60
2021/12/15 00:16:15;;;;;;;27.50;16.20;;;;;;;;;;5057188;28;20748;-62
2021/12/15 00:18:44;;;;;;;28.00;15.87;;;;;;;;;;5056814;28;20454;-61
2021/12/15 00:21:10;;;;;;;26.13;15.03;;;;;;;;;;5054659;28;20417;-62
2021/12/15 00:23:38;;;;;;;25.80;15.00;;;;;;;;;;5053580;28;20767;-62
2021/12/15 00:26:04;;;;;;;26.27;14.97;;;;;;;;;;5054580;28;20406;-62
2021/12/15 00:28:30;;;;;;;29.80;16.30;;;;;;;;;;5054475;28;20430;-61
2021/12/15 00:30:57;;;;;;;25.10;13.97;;;;;;;;;;5054703;28;20406;-62
2021/12/15 00:33:23;;;;;;;25.87;15.20;;;;;;;;;;5054559;28;20413;-62
2021/12/15 00:35:49;;;;;;;25.47;16.07;;;;;;;;;;5054328;28;20410;-60
2021/12/15 00:38:15;;;;;;;24.47;14.60;;;;;;;;;;5054252;28;20452;-62
2021/12/15 00:40:41;;;;;;;23.90;13.60;;;;;;;;;;5054625;28;20740;-60
2021/12/15 00:43:07;;;;;;;25.30;15.17;;;;;;;;;;5054416;28;20914;-61
2021/12/15 00:45:33;;;;;;;24.60;14.97;;;;;;;;;;5054600;28;20406;-61
2021/12/15 00:48:00;;;;;;;22.90;13.10;;;;;;;;;;5054257;28;20464;-61
2021/12/15 00:50:29;;;;;;;23.13;14.40;;;;;;;;;;5054423;28;20447;-61
2021/12/15 00:52:55;;;;;;;21.30;14.10;;;;;;;;;;5054216;28;20413;-59
2021/12/15 00:55:22;;;;;;;20.73;13.67;;;;;;;;;;5054818;28;20402;-61
2021/12/15 00:57:48;;;;;;;16.83;12.97;;;;;;;;;;5054490;28;20432;-61
2021/12/15 01:00:18;;;;;;;23.03;14.30;;;;;;;;;;5054923;28;20402;-62
2021/12/15 01:02:46;;;;;;;16.93;12.23;;;;;;;;;;5054943;28;20402;-62
2021/12/15 01:05:14;;;;;;;19.77;12.47;;;;;;;;;;5054224;28;20426;-61
2021/12/15 01:07:40;;;;;;;21.40;12.80;;;;;;;;;;5054283;28;20402;-62
2021/12/15 01:10:07;;;;;;;18.93;11.40;;;;;;;;;;5054901;28;20891;-62
2021/12/15 01:20:35;;;;;;;21.00;12.80;;;;;;;;;;5055352;28;20386;-62
2021/12/15 01:23:04;;;;;;;21.67;13.57;;;;;;;;;;5054571;28;20385;-62
2021/12/15 01:25:34;;;;;;;21.43;14.90;;;;;;;;;;5054943;28;20386;-62
2021/12/15 01:28:00;;;;;;;21.17;12.83;;;;;;;;;;5054960;28;20425;-62
2021/12/15 01:30:28;;;;;;;22.43;12.80;;;;;;;;;;5054933;28;20386;-62
2021/12/15 01:32:55;;;;;;;18.83;12.90;;;;;;;;;;5055274;28;20489;-62
2021/12/15 01:35:21;;;;;;;20.03;12.67;;;;;;;;;;5055328;28;20733;-60
2021/12/15 01:37:48;;;;;;;19.43;12.30;;;;;;;;;;5055462;28;20402;-62
2021/12/15 01:40:23;;;;;;;18.70;12.70;;;;;;;;;;5055894;28;20742;-62
2021/12/15 01:42:49;;;;;;;20.00;12.13;;;;;;;;;;5055488;28;20465;-61
2021/12/15 01:48:01;;;;;;;19.40;12.93;;;;;;;;;;5055889;28;20440;-60
2021/12/15 01:50:27;;;;;;;19.77;11.90;;;;;;;;;;5055602;28;20481;-61
2021/12/15 01:52:54;;;;;;;23.87;13.90;;;;;;;;;;5054763;28;20493;-61
2021/12/15 01:55:20;;;;;;;20.77;13.20;;;;;;;;;;5055197;28;20394;-61
2021/12/15 01:57:47;;;;;;;22.80;13.80;;;;;;;;;;5053752;28;20427;-60
2021/12/15 02:00:19;;;;;;;20.33;13.83;;;;;;;;;;5054899;28;20492;-62
2021/12/15 02:02:45;;;;;;;19.20;13.13;;;;;;;;;;5055150;28;20460;-61
2021/12/15 02:05:12;;;;;;;21.33;13.63;;;;;;;;;;5052670;28;20491;-60
2021/12/15 02:07:40;;;;;;;19.23;13.00;;;;;;;;;;5050141;28;20406;-61
2021/12/15 02:10:07;;;;;;;19.97;13.20;;;;;;;;;;5054899;28;20486;-60
2021/12/15 02:12:36;;;;;;;20.97;12.83;;;;;;;;;;5055023;28;20455;-60
2021/12/15 02:15:04;;;;;;;22.87;12.97;;;;;;;;;;5055095;28;20414;-59
2021/12/15 02:17:30;;;;;;;19.60;12.20;;;;;;;;;;5054560;28;20428;-59
2021/12/15 02:19:56;;;;;;;19.37;12.57;;;;;;;;;;5053030;28;20453;-60
2021/12/15 02:22:23;;;;;;;19.93;13.73;;;;;;;;;;5053054;28;20818;-61
2021/12/15 02:24:51;;;;;;;22.10;14.50;;;;;;;;;;5052581;28;20945;-61
2021/12/15 02:27:17;;;;;;;21.53;12.93;;;;;;;;;;5053075;28;20485;-61
2021/12/15 02:29:46;;;;;;;24.97;13.30;;;;;;;;;;5052619;28;20461;-58
2021/12/15 02:37:29;;;;;;;19.80;12.37;;;;;;;;;;5053092;28;20393;-57
2021/12/15 02:40:00;;;;;;;19.27;12.70;;;;;;;;;;5052786;28;20843;-58
2021/12/15 02:42:30;;;;;;;23.77;13.37;;;;;;;;;;5050753;28;20429;-60
2021/12/15 02:44:57;;;;;;;21.20;13.13;;;;;;;;;;5052320;28;20410;-61
2021/12/15 02:47:25;;;;;;;21.87;13.80;;;;;;;;;;5052462;28;20401;-61
2021/12/15 02:49:53;;;;;;;22.10;13.87;;;;;;;;;;5052270;28;20422;-61
2021/12/15 02:52:19;;;;;;;21.27;13.70;;;;;;;;;;5052695;28;20436;-61
2021/12/15 02:54:45;;;;;;;20.43;12.47;;;;;;;;;;5052748;28;20406;-60
2021/12/15 02:57:12;;;;;;;19.80;11.83;;;;;;;;;;5052020;28;20430;-61
2021/12/15 02:59:59;;;;;;;20.67;12.23;;;;;;;;;;5052304;28;20834;-61
2021/12/15 03:05:24;;;;;;;22.37;13.30;;;;;;;;;;5054394;28;20448;-61
2021/12/15 03:08:04;;;;;;;19.03;11.80;;;;;;;;;;5053733;28;20501;-61
2021/12/15 03:16:00;;;;;;;17.63;10.93;;;;;;;;;;5052127;28;20473;-61
2021/12/15 03:18:27;;;;;;;20.57;12.40;;;;;;;;;;5054159;28;20485;-61
2021/12/15 03:20:59;;;;;;;21.07;12.63;;;;;;;;;;5055652;28;20414;-59
2021/12/15 03:23:35;;;;;;;18.37;12.27;;;;;;;;;;5055642;28;20398;-61
2021/12/15 03:26:02;;;;;;;19.63;11.47;;;;;;;;;;5055557;28;20370;-60
2021/12/15 03:34:36;;;;;;;18.77;11.60;;;;;;;;;;5054280;28;20416;-60
2021/12/15 03:39:28;;;;;;;21.27;12.27;;;;;;;;;;5050726;28;20461;-61
2021/12/15 03:42:01;;;;;;;23.40;13.87;;;;;;;;;;5055520;28;20777;-60
2021/12/15 03:44:29;;;;;;;25.83;15.83;;;;;;;;;;5056023;28;20386;-61
2021/12/15 03:46:56;;;;;;;20.90;12.87;;;;;;;;;;5057620;28;20414;-60
2021/12/15 03:49:22;;;;;;;24.20;14.67;;;;;;;;;;5057480;28;20475;-60
2021/12/15 03:51:48;;;;;;;23.90;15.10;;;;;;;;;;5057165;28;20428;-60
2021/12/15 03:54:14;;;;;;;22.20;12.47;;;;;;;;;;5057760;28;20406;-60
2021/12/15 03:56:42;;;;;;;18.83;12.17;;;;;;;;;;5057626;28;20464;-61
2021/12/15 03:59:08;;;;;;;22.03;14.07;;;;;;;;;;5057574;28;20449;-61
2021/12/15 04:01:34;;;;;;;25.10;13.90;;;;;;;;;;5057538;28;20409;-61
2021/12/15 04:04:04;;;;;;;27.60;13.90;;;;;;;;;;5057072;28;20398;-58
2021/12/15 04:06:31;;;;;;;21.87;14.07;;;;;;;;;;5056074;28;20413;-61
2021/12/15 04:08:58;;;;;;;24.50;14.23;;;;;;;;;;5057135;28;20438;-61
2021/12/15 04:11:26;;;;;;;24.63;14.83;;;;;;;;;;5056313;28;20402;-62
2021/12/15 04:13:52;;;;;;;26.60;15.50;;;;;;;;;;5054880;28;20905;-61
2021/12/15 04:16:41;;;;;;;28.80;15.90;;;;;;;;;;5054576;28;20894;-61
2021/12/15 04:19:10;;;;;;;28.93;16.40;;;;;;;;;;5054554;28;20450;-61
2021/12/15 04:21:37;;;;;;;26.93;16.13;;;;;;;;;;5054607;28;20403;-61
2021/12/15 04:24:04;;;;;;;28.60;16.50;;;;;;;;;;5055958;28;20398;-62
2021/12/15 04:26:30;;;;;;;31.80;17.63;;;;;;;;;;5053674;28;20513;-61
2021/12/15 04:28:56;;;;;;;30.13;17.10;;;;;;;;;;5036274;28;20437;-62
2021/12/15 04:31:29;;;;;;;33.07;17.20;;;;;;;;;;5037175;28;20426;-62
2021/12/15 04:33:56;;;;;;;34.60;18.17;;;;;;;;;;5036920;28;20399;-62
2021/12/15 04:36:24;;;;;;;28.23;16.83;;;;;;;;;;5036799;28;20407;-62
2021/12/15 04:38:52;;;;;;;26.60;15.53;;;;;;;;;;5036507;28;20972;-62
2021/12/15 04:41:19;;;;;;;30.17;17.37;;;;;;;;;;5037293;28;20760;-62
2021/12/15 04:43:55;;;;;;;32.20;18.57;;;;;;;;;;5036993;28;20790;-62
2021/12/15 04:46:21;;;;;;;29.47;17.23;;;;;;;;;;5036668;28;20393;-62
2021/12/15 04:48:48;;;;;;;32.57;18.67;;;;;;;;;;5036749;28;20555;-62
2021/12/15 04:51:14;;;;;;;31.50;17.13;;;;;;;;;;5036496;28;20415;-61
2021/12/15 04:53:41;;;;;;;26.00;16.20;;;;;;;;;;5035043;28;20806;-62
2021/12/15 04:56:08;;;;;;;31.37;18.40;;;;;;;;;;5036510;28;20406;-63
2021/12/15 04:58:34;;;;;;;28.87;15.87;;;;;;;;;;5035780;28;20506;-61
2021/12/15 05:01:02;;;;;;;29.60;17.17;;;;;;;;;;5036313;28;20434;-62
2021/12/15 05:03:28;;;;;;;27.90;16.80;;;;;;;;;;5036145;28;20395;-62
2021/12/15 05:05:55;;;;;;;24.20;15.87;;;;;;;;;;5035980;28;20395;-62
2021/12/15 05:08:21;;;;;;;29.83;17.07;;;;;;;;;;5035967;28;20521;-62
2021/12/15 05:10:49;;;;;;;29.80;17.73;;;;;;;;;;5036079;28;20460;-62
2021/12/15 05:13:16;;;;;;;30.87;18.10;;;;;;;;;;5036094;28;20399;-62
2021/12/15 05:15:42;;;;;;;29.63;18.10;;;;;;;;;;5036356;28;20465;-61
2021/12/15 05:18:08;;;;;;;24.60;15.47;;;;;;;;;;5036003;28;20963;-62
2021/12/15 05:20:35;;;;;;;28.13;16.30;;;;;;;;;;5035910;28;20517;-62
2021/12/15 05:23:03;;;;;;;25.90;16.53;;;;;;;;;;5035553;28;20448;-62
2021/12/15 05:25:29;;;;;;;26.77;16.50;;;;;;;;;;5036121;28;20733;-61
2021/12/15 05:27:55;;;;;;;26.93;17.23;;;;;;;;;;5035750;28;20429;-61
2021/12/15 05:30:21;;;;;;;29.23;16.63;;;;;;;;;;5035872;28;20391;-61
2021/12/15 05:32:47;;;;;;;26.10;16.00;;;;;;;;;;5035557;28;20403;-61
2021/12/15 05:35:20;;;;;;;27.17;15.77;;;;;;;;;;5035550;28;20405;-61
2021/12/15 05:37:46;;;;;;;26.70;16.60;;;;;;;;;;5035920;28;20396;-60
2021/12/15 05:40:12;;;;;;;31.40;16.67;;;;;;;;;;5032697;28;20466;-60
2021/12/15 05:42:39;;;;;;;26.27;15.73;;;;;;;;;;5033810;28;20410;-61
2021/12/15 05:45:05;;;;;;;34.90;18.00;;;;;;;;;;5033443;28;20438;-61
2021/12/15 05:47:32;;;;;;;29.50;16.77;;;;;;;;;;5033657;28;20908;-61
2021/12/15 05:49:58;;;;;;;25.80;16.50;;;;;;;;;;5033375;28;20422;-61
2021/12/15 05:52:28;;;;;;;24.10;15.03;;;;;;;;;;5033282;28;20994;-62
2021/12/15 05:54:54;;;;;;;24.23;16.70;;;;;;;;;;5033535;28;20829;-62
2021/12/15 05:57:21;;;;;;;28.60;18.13;;;;;;;;;;5032908;28;20537;-60
2021/12/15 05:59:47;;;;;;;33.53;21.60;;;;;;;;;;5033044;28;20537;-60
2021/12/15 06:02:14;;;;;;;24.80;17.97;;;;;;;;;;5033350;28;20798;-59
2021/12/15 06:04:40;;;;;;;26.87;17.70;;;;;;;;;;5033107;28;20397;-60
2021/12/15 06:07:06;;;;;;;26.87;18.20;;;;;;;;;;5033501;28;20802;-60
2021/12/15 06:09:33;;;;;;;30.60;17.93;;;;;;;;;;5033581;28;20501;-62
2021/12/15 06:12:00;;;;;;;29.80;18.83;;;;;;;;;;5033822;28;20753;-62
2021/12/15 06:14:27;;;;;;;32.37;18.37;;;;;;;;;;5033591;28;20753;-62
2021/12/15 06:16:55;;;;;;;30.87;19.47;;;;;;;;;;5032819;28;20410;-61
2021/12/15 06:19:21;;;;;;;31.00;18.50;;;;;;;;;;5032715;28;20557;-60
2021/12/15 06:21:48;;;;;;;25.30;17.57;;;;;;;;;;5032943;28;20880;-59
2021/12/15 06:24:14;;;;;;;31.20;18.90;;;;;;;;;;5032923;28;20407;-61
2021/12/15 06:26:40;;;;;;;32.43;19.27;;;;;;;;;;5033129;28;20437;-62
2021/12/15 06:29:06;;;;;;;29.30;19.17;;;;;;;;;;5033043;28;20462;-60
2021/12/15 06:31:32;;;;;;;28.67;18.43;;;;;;;;;;5032568;28;20414;-61
2021/12/15 06:33:58;;;;;;;24.50;18.20;;;;;;;;;;5033111;28;20467;-62
2021/12/15 06:36:25;;;;;;;30.40;18.67;;;;;;;;;;5032859;28;20399;-62
2021/12/15 06:38:53;;;;;;;24.20;16.77;;;;;;;;;;5032621;28;20967;-60
2021/12/15 06:41:19;;;;;;;28.27;17.60;;;;;;;;;;5032802;28;20405;-60
2021/12/15 06:43:49;;;;;;;27.50;17.50;;;;;;;;;;5032779;28;20431;-59
2021/12/15 06:59:59;;;;;;;28.67;18.20;;;;;;;;;;5036427;28;20454;-61
2021/12/15 07:02:25;;;;;;;25.70;16.77;;;;;;;;;;5036292;28;20406;-60
2021/12/15 07:04:51;;;;;;;27.30;17.77;;;;;;;;;;5036054;28;20478;-61
2021/12/15 07:07:18;;;;;;;30.50;17.77;;;;;;;;;;5036139;28;20390;-59
2021/12/15 07:09:44;;;;;;;29.20;16.67;;;;;;;;;;5036262;28;20425;-62
2021/12/15 07:12:10;;;;;;;30.90;18.20;;;;;;;;;;5035970;28;20447;-61
2021/12/15 07:14:36;;;;;;;24.00;17.70;;;;;;;;;;5036302;28;20775;-62
2021/12/15 07:17:08;;;;;;;25.80;17.20;;;;;;;;;;5036374;28;20418;-62
2021/12/15 07:19:51;;;;;;;25.10;16.20;;;;;;;;;;5036135;28;20453;-62
2021/12/15 07:22:31;;;;;;;25.97;16.67;;;;;;;;;;5036353;28;20391;-62
2021/12/15 07:24:58;;;;;;;26.50;17.27;;;;;;;;;;5036498;28;20383;-62
2021/12/15 07:27:24;;;;;;;26.53;18.63;;;;;;;;;;5035964;28;20402;-61
2021/12/15 07:29:50;;;;;;;31.80;18.90;;;;;;;;;;5035970;28;20422;-62
2021/12/15 07:32:16;;;;;;;31.33;20.80;;;;;;;;;;5036044;28;20419;-62
2021/12/15 07:34:42;;;;;;;29.57;20.07;;;;;;;;;;5035930;28;20409;-62
2021/12/15 07:37:08;;;;;;;33.40;22.40;;;;;;;;;;5035802;28;20417;-60
2021/12/15 07:39:36;;;;;;;31.10;18.63;;;;;;;;;;5035534;28;20458;-61
2021/12/15 07:42:09;;;;;;;30.90;19.77;;;;;;;;;;5035851;28;20402;-59
2021/12/15 07:44:35;;;;;;;26.37;16.90;;;;;;;;;;5035608;28;20387;-62
2021/12/15 07:47:01;;;;;;;32.90;18.87;;;;;;;;;;5035933;28;20406;-62
2021/12/15 07:49:29;;;;;;;25.60;16.60;;;;;;;;;;5035609;28;20422;-61
2021/12/15 07:52:03;;;;;;;27.70;17.33;;;;;;;;;;5035606;28;20411;-62
2021/12/15 07:54:32;;;;;;;29.20;18.03;;;;;;;;;;5037356;28;20933;-62
2021/12/15 07:56:58;;;;;;;27.97;17.63;;;;;;;;;;5045234;28;20445;-63
2021/12/15 07:59:24;;;;;;;27.63;18.60;;;;;;;;;;5037573;28;20461;-62
2021/12/15 08:01:51;;;;;;;27.00;17.77;;;;;;;;;;5043264;28;20422;-61
2021/12/15 08:04:18;;;;;;;28.13;15.57;;;;;;;;;;5047222;28;20815;-62
2021/12/15 08:06:46;;;;;;;28.80;18.60;;;;;;;;;;5052342;28;20429;-62
2021/12/15 08:09:12;;;;;;;28.27;19.27;;;;;;;;;;5053056;28;20430;-63
2021/12/15 08:11:38;;;;;;;32.30;19.13;;;;;;;;;;5036332;28;20431;-62
2021/12/15 08:14:04;;;;;;;29.27;18.17;;;;;;;;;;5052113;28;20772;-63
2021/12/15 08:16:30;;;;;;;26.50;16.60;;;;;;;;;;5039705;28;20477;-61
2021/12/15 08:18:56;;;;;;;26.20;14.50;;;;;;;;;;5041696;28;20480;-62
2021/12/15 08:21:23;;;;;;;33.07;17.77;;;;;;;;;;5040644;28;20437;-61
2021/12/15 08:23:49;;;;;;;26.80;16.33;;;;;;;;;;5042484;28;20494;-61
2021/12/15 08:26:15;;;;;;;32.33;16.33;;;;;;;;;;5047779;28;20410;-61
2021/12/15 08:28:41;;;;;;;24.97;15.00;;;;;;;;;;5048057;28;20449;-61
2021/12/15 08:31:07;;;;;;;23.60;13.60;;;;;;;;;;5041769;28;20821;-64
2021/12/15 08:33:34;;;;;;;29.37;15.07;;;;;;;;;;5038685;28;20426;-61
2021/12/15 08:36:07;;;;;;;21.50;12.97;;;;;;;;;;5043978;28;20525;-63
2021/12/15 08:38:35;;;;;;;22.90;13.63;;;;;;;;;;5034093;28;20549;-62
2021/12/15 08:41:03;;;;;;;25.97;14.23;;;;;;;;;;5037786;28;20582;-62
2021/12/15 08:43:29;;;;;;;23.67;14.37;;;;;;;;;;5033254;28;20447;-61
2021/12/15 08:46:06;;;;;;;26.60;15.17;;;;;;;;;;5033430;28;20746;-61
2021/12/15 08:48:34;;;;;;;26.63;14.60;;;;;;;;;;5040540;28;20460;-61
2021/12/15 08:51:00;;;;;;;23.83;15.30;;;;;;;;;;5033926;28;20777;-61
2021/12/15 08:53:26;;;;;;;29.00;16.60;;;;;;;;;;5038952;28;20434;-62
2021/12/15 08:55:52;;;;;;;33.07;17.87;;;;;;;;;;5043674;28;20409;-61
2021/12/15 08:58:20;;;;;;;28.30;15.50;;;;;;;;;;5048869;28;20596;-63
2021/12/15 09:00:47;;;;;;;27.43;16.00;;;;;;;;;;5045153;28;20438;-60
2021/12/15 09:03:16;;;;;;;32.27;16.23;;;;;;;;;;5042295;28;20449;-60
2021/12/15 09:05:44;;;;;;;23.40;14.00;;;;;;;;;;5039471;28;20437;-61
2021/12/15 09:08:11;;;;;;;32.60;16.70;;;;;;;;;;5037758;28;20487;-62
2021/12/15 09:10:40;;;;;;;25.37;15.07;;;;;;;;;;5034986;28;20434;-60
2021/12/15 09:13:06;;;;;;;28.07;13.70;;;;;;;;;;5040265;28;20422;-60
2021/12/15 09:15:32;;;;;;;23.67;14.70;;;;;;;;;;5035473;28;20414;-58
2021/12/15 09:17:59;;;;;;;24.47;15.63;;;;;;;;;;5038636;28;20438;-61
2021/12/15 09:20:27;;;;;;;33.10;21.40;;;;;;;;;;5039421;28;20422;-59
2021/12/15 09:22:53;;;;;;;25.30;15.53;;;;;;;;;;5039283;28;20411;-60
2021/12/15 09:25:20;;;;;;;18.90;13.43;;;;;;;;;;5041525;28;20410;-58
2021/12/15 09:27:46;;;;;;;23.10;13.77;;;;;;;;;;5037486;28;20423;-65
2021/12/15 09:30:14;;;;;;;22.80;13.07;;;;;;;;;;5043307;28;20420;-59
2021/12/15 09:32:40;;;;;;;22.03;14.87;;;;;;;;;;5046080;28;20426;-64
2021/12/15 09:35:07;;;;;;;22.57;14.00;;;;;;;;;;5045351;28;20813;-65
2021/12/15 09:37:33;;;;;;;20.87;13.30;;;;;;;;;;5037595;28;20480;-64
2021/12/15 09:40:00;;;;;;;25.03;14.03;;;;;;;;;;5035678;28;20794;-64
2021/12/15 09:42:33;;;;;;;24.13;14.23;;;;;;;;;;5038205;28;20781;-64
2021/12/15 09:45:14;;;;;;;21.35;13.63;;;;;;;;;;5034348;28;20405;-64
2021/12/15 09:48:00;;;;;;;20.07;13.60;;;;;;;;;;5039257;28;20172;-63
2021/12/15 10:04:22;;;;;;;17.47;10.70;;;;;;;;;;5037221;28;20471;-64
2021/12/15 10:17:44;;;;;;;16.73;8.60;;;;;;;;;;5049618;28;20416;-64
2021/12/15 10:20:16;;;;;;;16.20;9.17;;;;;;;;;;5039626;28;20862;-63
2021/12/15 10:22:45;;;;;;;14.00;9.07;;;;;;;;;;5042214;28;20460;-67
2021/12/15 10:25:11;;;;;;;13.53;8.90;;;;;;;;;;5040888;28;20422;-63
2021/12/15 10:27:46;;;;;;;12.15;8.45;;;;;;;;;;5051278;28;20415;-63
2021/12/15 10:30:23;;;;;;;10.10;6.60;;;;;;;;;;5039702;28;20179;-64
2021/12/15 10:32:52;;;;;;;10.80;7.37;;;;;;;;;;5039203;28;20449;-67
2021/12/15 10:35:20;;;;;;;10.87;7.77;;;;;;;;;;5047318;28;20422;-65
2021/12/15 10:38:05;;;;;;;12.50;8.77;;;;;;;;;;5039363;28;20813;-64
2021/12/15 10:40:31;;;;;;;13.40;8.43;;;;;;;;;;5046995;28;20589;-64
2021/12/15 10:43:02;;;;;;;12.57;8.83;;;;;;;;;;5044936;28;20410;-63
2021/12/15 10:45:35;;;;;;;14.80;9.63;;;;;;;;;;5041772;28;20479;-63
2021/12/15 10:48:01;;;;;;;15.47;9.53;;;;;;;;;;5038805;28;20785;-65
2021/12/15 10:50:27;;;;;;;17.17;10.37;;;;;;;;;;5042765;28;20457;-63
2021/12/15 10:53:02;;;;;;;16.33;11.07;;;;;;;;;;5053679;28;20421;-65
2021/12/15 10:55:33;;;;;;;12.43;9.13;;;;;;;;;;5040038;28;20437;-66
2021/12/15 10:58:00;;;;;;;17.17;10.50;;;;;;;;;;5045973;28;20523;-64
2021/12/15 11:00:27;;;;;;;12.83;9.20;;;;;;;;;;5046073;28;20421;-65
2021/12/15 11:03:05;;;;;;;14.30;9.10;;;;;;;;;;5046564;28;20915;-62
2021/12/15 11:05:31;;;;;;;14.23;10.00;;;;;;;;;;5037265;28;20187;-63
2021/12/15 11:07:58;;;;;;;16.63;11.30;;;;;;;;;;5041997;28;20796;-64
2021/12/15 11:10:26;;;;;;;16.50;10.90;;;;;;;;;;5034964;28;20418;-62
2021/12/15 11:13:04;;;;;;;19.10;8.67;;;;;;;;;;5039083;28;20495;-63
2021/12/15 11:15:30;;;;;;;16.20;10.30;;;;;;;;;;5046125;28;20414;-64
2021/12/15 11:17:57;;;;;;;13.77;9.00;;;;;;;;;;5041762;28;20414;-64
2021/12/15 11:20:25;;;;;;;14.97;8.93;;;;;;;;;;5044780;28;20506;-60
2021/12/15 11:22:57;;;;;;;17.53;11.63;;;;;;;;;;5043078;28;20457;-61
2021/12/15 11:25:29;;;;;;;12.07;8.83;;;;;;;;;;5043365;28;20418;-61
2021/12/15 11:28:14;;;;;;;18.67;10.90;;;;;;;;;;5036304;28;20450;-63
2021/12/15 11:30:58;;;;;;;13.07;9.33;;;;;;;;;;5047722;28;20482;-64
2021/12/15 11:33:29;;;;;;;12.60;8.40;;;;;;;;;;5036776;28;20417;-63
2021/12/15 11:36:07;;;;;;;11.13;8.73;;;;;;;;;;5052536;28;20484;-64
2021/12/15 11:38:33;;;;;;;9.67;7.20;;;;;;;;;;5048430;28;20464;-63
2021/12/15 11:40:59;;;;;;;11.63;7.17;;;;;;;;;;5038695;28;20444;-64
2021/12/15 11:43:27;;;;;;;9.70;6.13;;;;;;;;;;5047480;28;20415;-65
2021/12/15 11:45:53;;;;;;;7.90;6.40;;;;;;;;;;5055706;28;20417;-64
2021/12/15 11:48:23;;;;;;;15.77;7.90;;;;;;;;;;5049292;28;20457;-63
2021/12/15 11:50:51;;;;;;;8.73;6.50;;;;;;;;;;5041324;28;20835;-60
2021/12/15 11:53:30;;;;;;;10.03;7.17;;;;;;;;;;5036687;28;20932;-65
2021/12/15 11:56:10;;;;;;;10.63;7.03;;;;;;;;;;5045404;28;20929;-61
2021/12/15 11:58:36;;;;;;;7.67;6.20;;;;;;;;;;5040844;28;20472;-64
2021/12/15 12:01:03;;;;;;;8.40;5.30;;;;;;;;;;5048026;28;20414;-66
2021/12/15 12:03:29;;;;;;;6.60;4.77;;;;;;;;;;5046428;28;20577;-63
2021/12/15 12:05:56;;;;;;;7.50;5.40;;;;;;;;;;5042823;28;20426;-64
2021/12/15 12:08:23;;;;;;;7.27;5.40;;;;;;;;;;5045966;28;20465;-64
2021/12/15 12:10:51;;;;;;;7.50;5.40;;;;;;;;;;5037693;28;20426;-64
2021/12/15 12:13:26;;;;;;;12.07;7.00;;;;;;;;;;5036705;28;20454;-62
2021/12/15 12:15:54;;;;;;;7.50;4.83;;;;;;;;;;5039931;28;20438;-64
2021/12/15 12:18:23;;;;;;;7.13;5.90;;;;;;;;;;5038548;28;20857;-64
2021/12/15 12:20:51;;;;;;;8.93;5.30;;;;;;;;;;5043459;28;20469;-63
2021/12/15 12:23:19;;;;;;;7.63;5.87;;;;;;;;;;5034419;28;20537;-62
2021/12/15 12:25:47;;;;;;;7.50;4.90;;;;;;;;;;5038996;28;20413;-60
2021/12/15 12:28:15;;;;;;;8.50;5.13;;;;;;;;;;5036295;28;20442;-61
2021/12/15 12:30:45;;;;;;;6.80;5.13;;;;;;;;;;5050432;28;20516;-62
2021/12/15 12:33:12;;;;;;;10.27;6.70;;;;;;;;;;5041223;28;20421;-63
2021/12/15 12:35:40;;;;;;;10.13;6.63;;;;;;;;;;5041430;28;20424;-62
2021/12/15 12:38:12;;;;;;;10.20;6.07;;;;;;;;;;5039914;28;20994;-63
2021/12/15 12:40:50;;;;;;;9.20;6.43;;;;;;;;;;5042438;28;20432;-67
2021/12/15 12:43:17;;;;;;;6.77;4.90;;;;;;;;;;5044295;28;20199;-67
2021/12/15 12:45:43;;;;;;;8.80;6.20;;;;;;;;;;5041645;28;20409;-67
2021/12/15 12:59:36;;;;;;;7.23;5.10;;;;;;;;;;5036495;28;20457;-58
2021/12/15 13:02:05;;;;;;;7.00;4.90;;;;;;;;;;5033634;28;20484;-59
2021/12/15 13:04:39;;;;;;;9.03;6.27;;;;;;;;;;5044393;28;20512;-62
2021/12/15 13:07:05;;;;;;;7.10;4.73;;;;;;;;;;5043391;28;20422;-61
2021/12/15 13:09:46;;;;;;;8.03;5.23;;;;;;;;;;5048210;28;20449;-62
2021/12/15 13:12:44;;;;;;;9.40;6.20;;;;;;;;;;5034755;28;20417;-60
2021/12/15 13:15:10;;;;;;;7.47;4.93;;;;;;;;;;5035045;28;20790;-61
2021/12/15 13:17:52;;;;;;;7.63;5.77;;;;;;;;;;5043855;28;20433;-61
2021/12/15 13:20:26;;;;;;;9.40;5.87;;;;;;;;;;5052875;28;20445;-58
2021/12/15 13:28:47;;;;;;;9.30;6.47;;;;;;;;;;5045172;28;20464;-60
2021/12/15 13:31:16;;;;;;;7.80;6.13;;;;;;;;;;5038151;28;20454;-60
2021/12/15 13:33:43;;;;;;;9.87;6.37;;;;;;;;;;5048841;28;20410;-60
2021/12/15 13:36:10;;;;;;;8.20;5.93;;;;;;;;;;5040761;28;20456;-59
2021/12/15 13:38:45;;;;;;;9.63;5.80;;;;;;;;;;5054379;28;20481;-60
2021/12/15 13:41:20;;;;;;;11.40;7.40;;;;;;;;;;5059456;28;20818;-61
2021/12/15 13:43:46;;;;;;;9.30;6.13;;;;;;;;;;5044120;28;20761;-60
2021/12/15 13:46:42;;;;;;;9.93;6.87;;;;;;;;;;5054688;28;20480;-60
2021/12/15 13:49:11;;;;;;;10.93;6.70;;;;;;;;;;5041367;28;21028;-61
2021/12/15 13:51:52;;;;;;;10.70;7.27;;;;;;;;;;5045085;28;20827;-62
2021/12/15 13:54:22;;;;;;;9.47;7.00;;;;;;;;;;5044123;28;20829;-60
2021/12/15 13:56:52;;;;;;;8.43;6.60;;;;;;;;;;5051333;28;20431;-60
2021/12/15 13:59:35;;;;;;;8.63;6.43;;;;;;;;;;5034679;28;20458;-59
2021/12/15 14:02:10;;;;;;;9.23;6.17;;;;;;;;;;5036376;28;20720;-60
2021/12/15 14:04:40;;;;;;;8.97;6.50;;;;;;;;;;5038462;28;20768;-60
2021/12/15 14:07:25;;;;;;;11.40;7.57;;;;;;;;;;5049524;28;20409;-59
2021/12/15 14:09:51;;;;;;;9.47;6.90;;;;;;;;;;5041804;28;20440;-62
2021/12/15 14:12:37;;;;;;;10.60;6.57;;;;;;;;;;5046870;28;20483;-62
2021/12/15 14:15:04;;;;;;;10.43;8.00;;;;;;;;;;5036622;28;20414;-61
2021/12/15 14:17:30;;;;;;;10.67;7.27;;;;;;;;;;5040040;28;20772;-62
2021/12/15 14:19:56;;;;;;;9.20;6.70;;;;;;;;;;5035620;28;20449;-68
2021/12/15 14:22:23;;;;;;;12.90;6.80;;;;;;;;;;5037935;28;20445;-65
2021/12/15 14:24:50;;;;;;;11.05;7.10;;;;;;;;;;5037980;28;20425;-62
2021/12/15 14:27:16;;;;;;;11.47;7.23;;;;;;;;;;5044860;28;20179;-64
2021/12/15 14:29:43;;;;;;;9.47;6.93;;;;;;;;;;5045159;28;20441;-64
2021/12/15 14:32:12;;;;;;;11.10;7.17;;;;;;;;;;5043463;28;20440;-65
2021/12/15 14:34:39;;;;;;;13.10;8.63;;;;;;;;;;5044455;28;20417;-63
2021/12/15 14:37:07;;;;;;;10.47;7.67;;;;;;;;;;5043471;28;20479;-66
2021/12/15 14:39:38;;;;;;;15.27;9.00;;;;;;;;;;5037232;28;20756;-65
2021/12/15 14:42:14;;;;;;;14.70;7.93;;;;;;;;;;5050213;28;21070;-64
2021/12/15 14:44:42;;;;;;;14.70;8.67;;;;;;;;;;5036480;28;20405;-63
2021/12/15 14:47:16;;;;;;;13.63;8.53;;;;;;;;;;5045099;28;21210;-65
2021/12/15 14:49:45;;;;;;;11.00;8.20;;;;;;;;;;5053414;28;20435;-64
2021/12/15 14:52:21;;;;;;;12.77;8.50;;;;;;;;;;5035262;28;20493;-66
2021/12/15 14:54:49;;;;;;;13.40;8.30;;;;;;;;;;5047909;28;20417;-65
2021/12/15 14:57:18;;;;;;;12.13;6.97;;;;;;;;;;5033351;28;20449;-65
2021/12/15 14:59:49;;;;;;;11.93;8.40;;;;;;;;;;5051244;28;20465;-65
2021/12/15 15:02:15;;;;;;;10.97;7.77;;;;;;;;;;5041795;28;20441;-66
2021/12/15 15:04:44;;;;;;;15.27;8.70;;;;;;;;;;5040554;28;20911;-61
2021/12/15 15:07:11;;;;;;;15.80;9.07;;;;;;;;;;5043937;28;20811;-63
2021/12/15 15:09:39;;;;;;;14.23;9.10;;;;;;;;;;5043128;28;20438;-61
2021/12/15 15:12:13;;;;;;;16.23;10.07;;;;;;;;;;5048426;28;20479;-60
2021/12/15 15:14:42;;;;;;;18.67;10.70;;;;;;;;;;5046829;28;20968;-62
2021/12/15 15:17:15;;;;;;;18.97;10.40;;;;;;;;;;5039465;28;21222;-63
2021/12/15 15:19:52;;;;;;;14.17;8.30;;;;;;;;;;5045046;28;20515;-62
2021/12/15 15:22:19;;;;;;;10.33;7.93;;;;;;;;;;5045952;28;20409;-66
2021/12/15 15:24:47;;;;;;;11.77;8.80;;;;;;;;;;5042094;28;20501;-63
2021/12/15 15:27:14;;;;;;;11.93;8.60;;;;;;;;;;5050888;28;20415;-63
2021/12/15 15:29:45;;;;;;;10.40;7.30;;;;;;;;;;5046323;28;20442;-62
2021/12/15 15:32:14;;;;;;;13.17;9.20;;;;;;;;;;5038739;28;20421;-62
2021/12/15 15:34:42;;;;;;;10.47;7.77;;;;;;;;;;5046622;28;20921;-62
2021/12/15 15:37:31;;;;;;;9.07;7.67;;;;;;;;;;5046785;28;20778;-63
2021/12/15 15:40:12;;;;;;;10.53;6.83;;;;;;;;;;5043412;28;20535;-63
2021/12/15 15:42:39;;;;;;;8.80;6.40;;;;;;;;;;5046941;28;20525;-62
2021/12/15 15:45:05;;;;;;;10.23;7.70;;;;;;;;;;5042734;28;20451;-64
2021/12/15 15:47:31;;;;;;;10.80;7.67;;;;;;;;;;5052242;28;20906;-65
2021/12/15 15:50:04;;;;;;;10.17;7.10;;;;;;;;;;5050138;28;20799;-65
2021/12/15 15:52:41;;;;;;;11.20;7.37;;;;;;;;;;5039018;28;20414;-66
2021/12/15 15:55:07;;;;;;;9.83;6.83;;;;;;;;;;5045684;28;20453;-64
2021/12/15 15:57:33;;;;;;;9.73;6.87;;;;;;;;;;5044968;28;20442;-67
2021/12/15 16:00:00;;;;;;;10.93;7.20;;;;;;;;;;5050407;28;21066;-66
2021/12/15 16:02:26;;;;;;;10.40;7.27;;;;;;;;;;5042176;28;20422;-65